createdAt,value
2023-03-23T15:58:16.612Z,99165.75
2023-03-23T16:00:47.924Z,99170.19
2023-03-23T16:03:21.579Z,99169.50
2023-03-23T16:05:51.172Z,99173.13
2023-03-23T16:08:21.817Z,99172.53
2023-03-23T16:10:51.633Z,99168.63
2023-03-23T16:13:20.852Z,99186.44
2023-03-23T16:15:50.458Z,99184.31
2023-03-23T16:18:22.012Z,99191.81
2023-03-23T16:20:51.553Z,99190.38
2023-03-23T16:23:23.188Z,99198.59
2023-03-23T16:25:52.842Z,99202.34
2023-03-23T16:28:22.048Z,99196.47
2023-03-23T16:30:50.857Z,99202.97
2023-03-23T16:33:19.623Z,99191.94
2023-03-23T16:35:48.424Z,99195.78
2023-03-23T16:38:18.874Z,99209.31
2023-03-23T16:40:48.913Z,99204.47
2023-03-23T16:43:18.194Z,99216.03
2023-03-23T16:45:48.179Z,99208.34
2023-03-23T16:48:17.922Z,99202.34
2023-03-23T16:50:46.996Z,99192.00
2023-03-23T16:53:16.736Z,99193.94
2023-03-23T16:55:48.472Z,99195.28
2023-03-23T16:58:19.342Z,99201.78
2023-03-23T17:00:51.180Z,99204.94
2023-03-23T17:03:23.779Z,99213.97
2023-03-23T17:05:53.668Z,99207.22
2023-03-23T17:08:23.150Z,99210.38
2023-03-23T17:10:52.261Z,99203.66
2023-03-23T17:13:22.871Z,99207.41
2023-03-23T17:15:54.486Z,99221.94
2023-03-23T17:18:24.046Z,99227.84
2023-03-23T17:20:54.488Z,99228.47
2023-03-23T17:23:26.234Z,99228.13
2023-03-23T17:25:55.689Z,99231.25
2023-03-23T17:28:27.558Z,99220.44
2023-03-23T17:30:56.392Z,99228.00
2023-03-23T17:33:25.042Z,99231.13
2023-03-23T17:35:54.648Z,99223.31
2023-03-23T17:38:23.610Z,99221.75
2023-03-23T17:40:58.084Z,99219.13
2023-03-23T17:43:29.902Z,99226.28
2023-03-23T17:46:01.251Z,99219.31
2023-03-23T17:48:29.982Z,99224.97
2023-03-23T17:50:59.315Z,99226.16
2023-03-23T17:53:34.054Z,99226.97
2023-03-23T17:56:05.639Z,99232.53
2023-03-23T17:58:36.913Z,99223.84
2023-03-23T18:01:06.105Z,99225.78
2023-03-23T18:03:35.170Z,99228.06
2023-03-23T18:06:07.675Z,99231.78
2023-03-23T18:08:37.397Z,99240.03
2023-03-23T18:11:06.751Z,99239.22
2023-03-23T18:13:38.416Z,99252.19
2023-03-23T18:16:08.415Z,99258.19
2023-03-23T18:18:37.509Z,99259.66
2023-03-23T18:21:09.472Z,99266.41
2023-03-23T18:23:49.084Z,99269.75
2023-03-23T18:26:25.485Z,99280.91
2023-03-23T18:28:56.151Z,99276.47
2023-03-23T18:31:25.153Z,99284.53
2023-03-23T18:33:55.792Z,99294.13
2023-03-23T18:36:26.861Z,99295.94
2023-03-23T18:38:59.571Z,99300.47
2023-03-23T18:41:28.574Z,99289.44
2023-03-23T18:43:58.800Z,99291.84
2023-03-23T18:46:27.836Z,99290.88
2023-03-23T18:48:58.090Z,99281.16
2023-03-23T18:51:27.607Z,99276.22
2023-03-23T18:53:56.410Z,99272.72
2023-03-23T18:56:25.799Z,99275.38
2023-03-23T18:58:56.420Z,99277.19
2023-03-23T19:01:27.012Z,99271.03
2023-03-23T19:03:55.592Z,99267.91
2023-03-23T19:06:27.648Z,99281.00
2023-03-23T19:08:58.225Z,99277.41
2023-03-23T19:11:27.639Z,99279.34
2023-03-23T19:14:02.639Z,99277.88
2023-03-23T19:16:36.172Z,99277.03
2023-03-23T19:19:08.690Z,99276.44
2023-03-23T19:21:40.033Z,99283.88
2023-03-23T19:24:10.231Z,99286.72
2023-03-23T19:26:41.832Z,99297.28
2023-03-23T19:31:46.216Z,99286.00
2023-03-23T19:34:18.210Z,99284.56
2023-03-23T19:36:54.156Z,99278.66
2023-03-23T19:39:25.319Z,99280.06
2023-03-23T19:41:54.316Z,99292.66
2023-03-23T19:44:23.547Z,99291.41
2023-03-23T19:46:53.712Z,99297.88
2023-03-23T19:49:22.970Z,99302.81
2023-03-23T19:52:06.383Z,99308.28
2023-03-23T19:54:39.590Z,99301.22
2023-03-23T19:57:08.936Z,99296.06
2023-03-23T19:59:38.099Z,99298.91
2023-03-23T20:02:09.403Z,99299.13
2023-03-23T20:04:39.886Z,99303.59
2023-03-23T20:07:09.985Z,99304.84
2023-03-23T20:09:39.725Z,99310.25
2023-03-23T20:12:09.780Z,99314.06
2023-03-23T20:14:44.481Z,99304.31
2023-03-23T20:17:16.502Z,99309.16
2023-03-23T20:19:45.208Z,99313.56
2023-03-23T20:22:14.520Z,99320.41
2023-03-23T20:24:45.399Z,99303.63
2023-03-23T20:27:15.507Z,99318.56
2023-03-23T20:29:45.092Z,99322.34
2023-03-23T20:32:15.733Z,99325.19
2023-03-23T20:34:49.809Z,99330.66
2023-03-23T20:37:20.990Z,99323.91
2023-03-23T20:39:49.918Z,99333.03
2023-03-23T20:42:19.586Z,99333.44
2023-03-23T20:44:49.254Z,99334.09
2023-03-23T20:47:20.792Z,99335.38
2023-03-23T20:49:52.583Z,99341.28
2023-03-23T20:52:23.024Z,99329.38
2023-03-23T20:54:53.574Z,99334.53
2023-03-23T20:57:23.331Z,99323.84
2023-03-23T20:59:53.814Z,99329.06
2023-03-23T21:02:26.602Z,99328.19
2023-03-23T21:04:55.820Z,99330.38
2023-03-23T21:07:27.696Z,99323.00
2023-03-23T21:09:57.530Z,99321.63
2023-03-23T21:12:27.453Z,99325.31
2023-03-23T21:14:57.332Z,99318.56
2023-03-23T21:17:28.926Z,99317.88
2023-03-23T21:19:58.200Z,99322.53
2023-03-23T21:22:27.575Z,99306.91
2023-03-23T21:24:56.519Z,99306.28
2023-03-23T21:27:25.283Z,99312.50
2023-03-23T21:29:59.657Z,99308.19
2023-03-23T21:32:30.032Z,99309.22
2023-03-23T21:35:02.630Z,99303.22
2023-03-23T21:37:31.623Z,99309.59
2023-03-23T21:40:01.232Z,99314.13
2023-03-23T21:42:31.672Z,99320.53
2023-03-23T21:45:03.208Z,99317.34
2023-03-23T21:47:33.196Z,99313.03
2023-03-23T21:50:02.614Z,99305.16
2023-03-23T21:52:34.721Z,99305.97
2023-03-23T21:55:04.807Z,99309.47
2023-03-23T21:57:34.791Z,99303.25
2023-03-23T22:00:06.784Z,99305.16
2023-03-23T22:02:37.193Z,99291.06
2023-03-23T22:05:09.490Z,99303.25
2023-03-23T22:07:40.822Z,99296.31
2023-03-23T22:10:11.882Z,99305.88
2023-03-23T22:12:41.236Z,99304.94
2023-03-23T22:15:15.296Z,99306.66
2023-03-23T22:17:45.792Z,99307.56
2023-03-23T22:20:15.663Z,99304.19
2023-03-23T22:22:44.157Z,99308.72
2023-03-23T22:25:14.365Z,99315.50
2023-03-23T22:27:44.242Z,99305.56
2023-03-23T22:30:14.114Z,99304.19
2023-03-23T22:32:42.817Z,99312.97
2023-03-23T22:35:14.252Z,99311.97
2023-03-23T22:37:42.964Z,99299.56
2023-03-23T22:40:11.968Z,99291.03
2023-03-23T22:42:40.790Z,99297.88
2023-03-23T22:45:10.531Z,99302.28
2023-03-23T22:47:39.824Z,99303.97
2023-03-23T22:50:09.955Z,99307.63
2023-03-23T22:52:40.958Z,99304.34
2023-03-23T22:55:10.721Z,99305.41
2023-03-23T22:57:39.404Z,99309.91
2023-03-23T23:00:15.073Z,99306.34
2023-03-23T23:02:44.448Z,99306.34
2023-03-23T23:05:14.838Z,99301.19
2023-03-23T23:07:44.741Z,99302.31
2023-03-23T23:10:13.733Z,99308.59
2023-03-23T23:12:42.753Z,99307.00
2023-03-23T23:15:14.689Z,99309.53
2023-03-23T23:17:43.683Z,99306.16
2023-03-23T23:20:14.442Z,99308.50
2023-03-23T23:22:46.225Z,99309.16
2023-03-23T23:25:15.100Z,99300.31
2023-03-23T23:27:43.723Z,99316.00
2023-03-23T23:30:14.268Z,99314.13
2023-03-23T23:32:44.957Z,99315.72
2023-03-23T23:35:14.686Z,99306.81
2023-03-23T23:37:43.279Z,99311.97
2023-03-23T23:40:16.112Z,99306.72
2023-03-23T23:42:46.275Z,99310.94
2023-03-23T23:45:16.623Z,99318.91
2023-03-23T23:47:45.830Z,99313.84
2023-03-23T23:50:15.671Z,99311.38
2023-03-23T23:52:44.909Z,99313.28
2023-03-23T23:55:16.789Z,99311.69
2023-03-23T23:57:45.968Z,99317.81
